Time;durP1;ratioP1;P1;durP2;ratioP2;P2;SDS_P1;SDS_P2;PMS_P1;PMS_P2;Temp;Humidity;BMP_temperature;BMP_pressure;BME280_temperature;BME280_humidity;BME280_pressure;Samples;Min_cycle;Max_cycle;Signal;HPM_P1;HPM_P2
2023/12/19 00:00:07;;;;;;;5.77;3.10;;;;;;;5.10;68.73;100193.50;5036462;28;20181;-85
2023/12/19 00:03:14;;;;;;;9.40;3.10;;;;;;;5.32;68.53;100181.91;5018568;28;20177;-85
2023/12/19 00:06:33;;;;;;;4.50;2.00;;;;;;;5.32;68.25;100196.69;4937164;29;20192;-85
2023/12/19 00:12:45;;;;;;;;;;;;;;;;;;;;;
2023/12/19 00:16:16;;;;;;;;;;;;;;;;;;;;;
2023/12/19 00:20:00;;;;;;;;;;;;;;;;;;;;;
2023/12/19 00:23:12;;;;;;;;;;;;;;;;;;;;;
2023/12/19 00:26:35;;;;;;;;;;;;;;;;;;;;;
2023/12/19 00:29:54;;;;;;;;;;;;;;;;;;;;;
2023/12/19 00:33:03;;;;;;;4.27;1.53;;;;;;;5.31;69.49;100203.59;5035760;28;20192;-85
2023/12/19 00:39:26;;;;;;;;;;;;;;;;;;;;;
2023/12/19 00:42:48;;;;;;;;;;;;;;;;;;;;;
2023/12/19 01:00:56;;;;;;;;;;;;;;;;;;;;;
2023/12/19 01:04:11;;;;;;;;;;;;;;;;;;;;;
2023/12/19 01:07:51;;;;;;;;;;;;;;;;;;;;;
2023/12/19 01:32:17;;;;;;;2.20;1.00;;;;;;;4.96;70.28;100162.50;4959047;28;20634;-85
2023/12/19 01:46:16;;;;;;;;;;;;;;;;;;;;;
2023/12/19 01:56:07;;;;;;;;;;;;;;;;;;;;;
2023/12/19 01:59:42;;;;;;;;;;;;;;;;;;;;;
2023/12/19 02:02:49;;;;;;;13.43;3.63;;;;;;;4.77;68.12;100136.81;4992923;28;20250;-85
2023/12/19 02:13:25;;;;;;;;;;;;;;;;;;;;;
2023/12/19 02:23:01;;;;;;;;;;;;;;;;;;;;;
2023/12/19 02:26:19;;;;;;;4.67;0.83;;;;;;;4.50;70.67;100132.84;5004256;28;20217;-86
2023/12/19 02:36:33;;;;;;;;;;;;;;;;;;;;;
2023/12/19 02:39:43;;;;;;;6.33;0.83;;;;;;;4.86;70.69;100123.69;4991986;28;20191;-86
2023/12/19 02:42:54;;;;;;;1.93;0.87;;;;;;;4.85;70.38;100127.16;4991797;28;20230;-86
2023/12/19 03:14:05;;;;;;;7.23;2.97;;;;;;;4.75;67.01;100120.38;4968920;28;20190;-86
2023/12/19 03:17:36;;;;;;;;;;;;;;;;;;;;;
2023/12/19 03:27:57;;;;;;;;;;;;;;;;;;;;;
2023/12/19 03:31:07;;;;;;;6.80;3.07;;;;;;;4.15;66.89;100130.63;5035864;28;20175;-86
2023/12/19 03:34:28;;;;;;;;;;;;;;;;;;;;;
2023/12/19 03:38:01;;;;;;;;;;;;;;;;;;;;;
2023/12/19 03:44:49;;;;;;;;;;;;;;;;;;;;;
2023/12/19 03:51:35;;;;;;;;;;;;;;;;;;;;;
2023/12/19 03:58:27;;;;;;;;;;;;;;;;;;;;;
2023/12/19 04:01:42;;;;;;;4.73;1.37;;;;;;;4.01;68.15;100122.13;5023261;28;20277;-86
2023/12/19 04:05:21;;;;;;;;;;;;;;;;;;;;;
2023/12/19 04:12:06;;;;;;;;;;;;;;;;;;;;;
2023/12/19 04:15:32;;;;;;;6.23;1.77;;;;;;;4.11;69.64;100109.94;5036148;28;20159;-86
2023/12/19 04:19:23;;;;;;;;;;;;;;;;;;;;;
2023/12/19 04:22:57;;;;;;;;;;;;;;;;;;;;;
2023/12/19 04:25:57;;;;;;;;;;;;;;;;;;;;;
2023/12/19 04:29:22;;;;;;;4.97;1.43;;;;;;;4.20;70.03;100113.28;5035121;28;20190;-86
2023/12/19 04:39:40;;;;;;;3.37;1.57;;;;;;;4.19;70.24;100105.53;4937625;28;20577;-85
2023/12/19 04:42:59;;;;;;;;;;;;;;;;;;;;;
2023/12/19 04:46:22;;;;;;;;;;;;;;;;;;;;;
2023/12/19 05:09:27;;;;;;;1.50;0.70;;;;;;;4.13;69.00;100129.81;5035098;28;20197;-86
2023/12/19 05:12:41;;;;;;;2.03;1.00;;;;;;;4.08;68.91;100131.59;5034301;28;20188;-87
2023/12/19 05:23:10;;;;;;;1.23;0.67;;;;;;;3.96;70.48;100142.06;4940593;28;20201;-86
2023/12/19 05:43:16;;;;;;;;;;;;;;;;;;;;;
2023/12/19 05:46:47;;;;;;;;;;;;;;;;;;;;;
2023/12/19 05:50:00;;;;;;;3.40;1.00;;;;;;;4.64;70.71;100132.66;5033875;28;20187;-86
2023/12/19 06:00:08;;;;;;;4.07;1.30;;;;;;;4.69;71.83;100138.66;5034022;28;20530;-86
2023/12/19 06:03:23;;;;;;;;;;;;;;;;;;;;;
2023/12/19 06:10:28;;;;;;;3.83;1.27;;;;;;;4.72;71.38;100156.78;5033825;28;20178;-86
2023/12/19 06:20:47;;;;;;;;;;;;;;;;;;;;;
2023/12/19 06:31:22;;;;;;;;;;;;;;;;;;;;;
2023/12/19 06:34:40;;;;;;;6.03;2.97;;;;;;;6.26;74.29;100143.94;4972917;28;20310;-86
2023/12/19 06:51:52;;;;;;;;;;;;;;;;;;;;;
2023/12/19 06:59:05;;;;;;;21.30;11.90;;;;;;;11.22;47.98;100115.34;5013361;28;20237;-86
2023/12/19 07:16:49;;;;;;;;;;;;;;;;;;;;;
2023/12/19 07:19:38;;;;;;;;;;;;;;;;;;;;;
2023/12/19 07:36:39;;;;;;;;;;;;;;;;;;;;;
2023/12/19 07:39:36;;;;;;;16.67;6.87;;;;;;;8.19;56.26;100150.75;5009757;28;20191;-87
2023/12/19 07:42:59;;;;;;;17.60;7.83;;;;;;;8.22;57.54;100148.06;4986270;28;20220;-86
2023/12/19 07:46:05;;;;;;;;;;;;;;;;;;;;;
2023/12/19 07:49:51;;;;;;;15.40;6.97;;;;;;;8.66;56.69;100139.88;5012917;28;20666;-87
2023/12/19 07:56:58;;;;;;;14.50;6.67;;;;;;;8.85;61.09;100135.84;4955715;28;20308;-87
2023/12/19 08:00:26;;;;;;;;;;;;;;;;;;;;;
2023/12/19 08:03:49;;;;;;;14.00;5.40;;;;;;;9.38;60.21;100126.31;4945103;28;20198;-87
2023/12/19 08:07:08;;;;;;;;;;;;;;;;;;;;;
2023/12/19 08:33:46;;;;;;;;;;;;;;;;;;;;;
2023/12/19 08:40:29;;;;;;;17.40;7.37;;;;;;;10.78;53.44;100085.59;5016061;28;20693;-86
2023/12/19 08:43:39;;;;;;;;;;;;;;;;;;;;;
2023/12/19 08:50:08;;;;;;;24.93;11.47;;;;;;;11.09;52.46;100065.13;5015870;28;20167;-87
2023/12/19 08:57:06;;;;;;;;;;;;;;;;;;;;;
2023/12/19 09:21:14;;;;;;;14.30;6.57;;;;;;;12.34;48.55;100028.19;5035055;28;20334;-88
2023/12/19 09:24:41;;;;;;;17.00;8.23;;;;;;;12.48;48.56;100014.44;5034336;28;20184;-88
2023/12/19 09:31:38;;;;;;;14.83;6.27;;;;;;;12.84;47.85;100010.06;4933266;29;20187;-89
2023/12/19 09:34:59;;;;;;;;;;;;;;;;;;;;;
2023/12/19 09:38:21;;;;;;;;;;;;;;;;;;;;;
2023/12/19 09:44:27;;;;;;;7.87;3.67;;;;;;;13.29;46.08;99996.47;5034650;28;20168;-89
2023/12/19 09:47:36;;;;;;;5.27;2.20;;;;;;;13.60;44.50;99994.94;4993394;28;20217;-90
2023/12/19 10:00:38;;;;;;;;;;;;;;;;;;;;;
2023/12/19 10:20:48;;;;;;;17.77;6.73;;;;;;;14.86;42.52;99942.28;5034169;28;20201;-92
2023/12/19 10:27:18;;;;;;;10.77;6.00;;;;;;;14.86;42.42;99929.09;4970417;28;20341;-92
2023/12/19 10:30:29;;;;;;;15.87;8.17;;;;;;;14.98;42.71;99928.41;5012325;28;20200;-93
2023/12/19 10:37:39;;;;;;;;;;;;;;;;;;;;;
2023/12/19 10:47:36;;;;;;;21.67;8.13;;;;;;;14.97;41.74;99900.28;5015304;28;20166;-94
2023/12/19 10:54:31;;;;;;;16.23;9.07;;;;;;;15.12;42.33;99886.19;4897492;29;20610;-93
2023/12/19 10:57:31;;;;;;;19.57;9.20;;;;;;;15.27;42.42;99890.56;4918184;28;20216;-94
2023/12/19 11:00:30;;;;;;;20.20;10.77;;;;;;;15.46;42.35;99886.88;4973552;28;20208;-94
2023/12/19 11:03:28;;;;;;;31.60;13.03;;;;;;;15.62;42.06;99866.47;4976438;28;20254;-94
2023/12/19 11:06:39;;;;;;;25.83;13.77;;;;;;;15.70;41.45;99861.56;4992786;28;20336;-94
2023/12/19 11:27:16;;;;;;;;;;;;;;;;;;;;;
2023/12/19 11:30:29;;;;;;;;;;;;;;;;;;;;;
2023/12/19 11:40:55;;;;;;;8.80;4.47;;;;;;;16.30;39.48;99812.72;4957486;28;20189;-96
2023/12/19 11:44:02;;;;;;;10.03;4.07;;;;;;;16.43;39.46;99803.00;5037114;28;20232;-95
2023/12/19 11:51:02;;;;;;;5.23;2.90;;;;;;;16.34;38.91;99792.19;5037704;28;20321;-94
2023/12/19 12:01:53;;;;;;;;;;;;;;;;;;;;;
2023/12/19 12:26:20;;;;;;;;;;;;;;;;;;;;;
2023/12/19 12:29:27;;;;;;;13.07;5.47;;;;;;;17.04;37.93;99757.41;4956716;29;20215;-94
2023/12/19 12:47:41;;;;;;;;;;;;;;;;;;;;;
2023/12/19 12:51:15;;;;;;;15.13;6.77;;;;;;;16.75;38.39;99755.06;5035336;28;20188;-95
2023/12/19 12:58:06;;;;;;;20.40;8.13;;;;;;;16.84;38.35;99749.13;5021871;28;20222;-94
2023/12/19 13:01:09;;;;;;;13.60;6.60;;;;;;;16.82;38.26;99745.75;5034351;28;20260;-94
2023/12/19 13:10:39;;;;;;;7.33;3.47;;;;;;;17.00;37.22;99736.53;4936578;29;20297;-94
2023/12/19 13:13:58;;;;;;;;;;;;;;;;;;;;;
2023/12/19 13:16:59;;;;;;;12.53;3.97;;;;;;;16.91;37.03;99735.38;4970846;28;20371;-94
2023/12/19 13:23:27;;;;;;;13.17;3.90;;;;;;;16.87;38.02;99735.69;4936472;29;20185;-93
2023/12/19 13:29:49;;;;;;;10.27;4.00;;;;;;;16.97;38.47;99734.09;5024697;28;20756;-94
2023/12/19 13:33:05;;;;;;;10.00;4.10;;;;;;;16.93;38.34;99728.16;5033350;28;20194;-94
2023/12/19 13:36:44;;;;;;;;;;;;;;;;;;;;;
2023/12/19 13:39:40;;;;;;;8.53;3.73;;;;;;;16.86;38.63;99731.34;5030127;28;20193;-94
2023/12/19 13:42:59;;;;;;;8.13;3.37;;;;;;;16.79;38.36;99736.22;4994166;28;20187;-94
2023/12/19 13:53:29;;;;;;;8.87;3.87;;;;;;;16.66;38.79;99722.13;4986660;28;20278;-95
2023/12/19 13:56:21;;;;;;;16.07;5.80;;;;;;;16.56;38.46;99719.25;4969146;28;20197;-95
2023/12/19 13:59:11;;;;;;;19.53;7.67;;;;;;;16.44;39.18;99714.75;4994077;28;20365;-94
2023/12/19 14:02:02;;;;;;;15.73;8.10;;;;;;;16.32;39.41;99710.28;4977557;28;20635;-93
2023/12/19 14:11:18;;;;;;;24.67;11.40;;;;;;;16.34;40.88;99718.13;5034751;28;20252;-93
2023/12/19 14:17:00;;;;;;;;;;;;;;;;;;;;;
2023/12/19 14:20:05;;;;;;;17.53;6.77;;;;;;;16.08;40.73;99706.63;5034652;28;20185;-93
2023/12/19 14:23:00;;;;;;;;;;;;;;;;;;;;;
2023/12/19 14:26:22;;;;;;;;;;;;;;;;;;;;;
2023/12/19 14:32:52;;;;;;;38.67;13.80;;;;;;;15.77;41.01;99704.28;5033896;28;20625;-93
2023/12/19 14:35:47;;;;;;;37.93;13.93;;;;;;;15.58;41.47;99712.56;5034539;28;20186;-93
2023/12/19 14:38:57;;;;;;;36.80;13.90;;;;;;;15.26;42.47;99701.34;5014498;28;20217;-93
2023/12/19 14:41:58;;;;;;;40.37;15.70;;;;;;;14.78;43.05;99707.00;5033001;28;20691;-93
2023/12/19 14:44:50;;;;;;;47.97;18.03;;;;;;;14.42;44.14;99706.56;5016407;28;20652;-92
2023/12/19 14:50:32;;;;;;;38.40;15.20;;;;;;;14.13;44.69;99711.72;5019449;28;20218;-92
2023/12/19 14:53:23;;;;;;;34.93;13.47;;;;;;;13.81;45.22;99712.69;5011288;28;20202;-92
2023/12/19 15:00:04;;;;;;;21.20;9.30;;;;;;;13.32;45.98;99709.31;4993644;28;20211;-93
2023/12/19 15:02:49;;;;;;;22.80;9.03;;;;;;;13.08;46.24;99720.31;4992427;28;20191;-92
2023/12/19 15:12:41;;;;;;;26.77;11.53;;;;;;;12.71;47.07;99724.84;4934986;29;20274;-93
2023/12/19 15:16:02;;;;;;;27.17;10.90;;;;;;;12.68;47.26;99717.09;4936338;29;20342;-92
2023/12/19 15:22:23;;;;;;;30.77;14.63;;;;;;;12.75;46.70;99721.16;4957031;28;20198;-91
2023/12/19 15:28:28;;;;;;;30.67;14.70;;;;;;;12.63;47.07;99732.28;4966815;28;20198;-91
2023/12/19 15:31:25;;;;;;;31.27;12.57;;;;;;;12.50;47.39;99731.22;5019709;28;20249;-91
2023/12/19 15:34:39;;;;;;;32.70;13.10;;;;;;;12.21;48.17;99729.22;5019166;28;20194;-91
2023/12/19 15:37:36;;;;;;;25.23;11.00;;;;;;;12.08;47.86;99731.56;5022896;28;20247;-91
2023/12/19 15:40:24;;;;;;;31.67;11.30;;;;;;;11.89;48.68;99729.94;5019406;28;20280;-92
2023/12/19 15:43:20;;;;;;;21.73;10.17;;;;;;;11.83;48.53;99724.97;5036893;28;20547;-92
2023/12/19 15:47:05;;;;;;;30.37;11.00;;;;;;;11.55;49.27;99731.53;5010347;28;20187;-91
2023/12/19 15:50:46;;;;;;;;;;;;;;;;;;;;;
2023/12/19 15:53:34;;;;;;;17.90;7.93;;;;;;;11.10;50.77;99728.38;5036804;28;20187;-92
2023/12/19 15:59:46;;;;;;;;;;;;;;;;;;;;;
2023/12/19 16:05:57;;;;;;;8.23;4.67;;;;;;;10.63;52.83;99734.88;5037093;28;20193;-90
2023/12/19 16:08:44;;;;;;;;;;;;;;;;;;;;;
2023/12/19 16:11:35;;;;;;;12.83;5.23;;;;;;;10.61;53.19;99732.34;5036373;28;20198;-91
2023/12/19 16:14:14;;;;;;;7.07;3.80;;;;;;;10.67;52.80;99729.41;5037189;28;20178;-91
2023/12/19 16:16:57;;;;;;;10.67;4.43;;;;;;;10.54;53.41;99730.88;5017549;28;20186;-90
2023/12/19 16:32:42;;;;;;;52.33;20.07;;;;;;;10.15;53.00;99749.13;4979969;28;20190;-91
2023/12/19 16:36:08;;;;;;;43.77;19.50;;;;;;;9.93;53.99;99745.66;5018710;28;20188;-90
2023/12/19 16:42:12;;;;;;;49.47;22.37;;;;;;;9.68;54.54;99752.75;5036332;28;20177;-90
2023/12/19 16:45:02;;;;;;;50.07;21.03;;;;;;;9.71;54.94;99744.78;5035270;28;20251;-90
2023/12/19 16:48:05;;;;;;;45.27;20.80;;;;;;;9.55;55.19;99741.91;5033769;28;20232;-90
2023/12/19 16:51:12;;;;;;;;;;;;;;;;;;;;;
2023/12/19 16:57:42;;;;;;;;;;;;;;;;;;;;;
2023/12/19 17:03:56;;;;;;;38.60;18.63;;;;;;;8.80;59.00;99756.09;5013819;28;20556;-90
2023/12/19 17:07:10;;;;;;;29.00;14.67;;;;;;;8.76;59.76;99754.47;5034937;28;20675;-89
2023/12/19 17:13:09;;;;;;;28.47;15.27;;;;;;;8.73;59.20;99751.97;5035377;28;20185;-90
2023/12/19 17:16:01;;;;;;;42.43;19.30;;;;;;;8.66;59.24;99750.47;5017375;28;20331;-89
2023/12/19 17:19:26;;;;;;;56.20;27.50;;;;;;;8.67;59.46;99746.97;5034691;28;20284;-89
2023/12/19 17:29:51;;;;;;;23.43;12.27;;;;;;;8.40;61.41;99738.31;4992430;28;20214;-89
2023/12/19 17:33:19;;;;;;;18.47;10.83;;;;;;;8.37;61.45;99724.50;4993991;28;20609;-89
2023/12/19 17:36:12;;;;;;;25.97;11.73;;;;;;;8.25;62.31;99719.69;5012378;28;20177;-89
2023/12/19 17:42:54;;;;;;;;;;;;;;;;;;;;;
2023/12/19 17:45:55;;;;;;;;;;;;;;;;;;;;;
2023/12/19 17:49:10;;;;;;;;;;;;;;;;;;;;;
2023/12/19 17:59:27;;;;;;;24.07;10.87;;;;;;;8.52;60.29;99723.97;5012367;28;20222;-89
2023/12/19 18:02:20;;;;;;;21.37;11.47;;;;;;;8.52;60.39;99723.97;4974108;28;20581;-89
2023/12/19 18:12:46;;;;;;;20.57;9.83;;;;;;;8.13;61.26;99712.22;5020418;28;20256;-88
2023/12/19 18:16:00;;;;;;;;;;;;;;;;;;;;;
2023/12/19 18:19:02;;;;;;;16.70;8.03;;;;;;;8.26;61.26;99713.53;5034208;28;20202;-89
2023/12/19 18:22:09;;;;;;;19.67;7.00;;;;;;;7.99;61.20;99718.75;5033402;28;20195;-89
2023/12/19 18:25:53;;;;;;;19.23;6.97;;;;;;;7.82;62.37;99715.88;5034178;28;20239;-88
2023/12/19 18:32:11;;;;;;;;;;;;;;;;;;;;;
2023/12/19 18:35:22;;;;;;;10.23;5.03;;;;;;;7.82;62.73;99697.59;5033168;28;20190;-88
2023/12/19 18:41:41;;;;;;;7.93;4.43;;;;;;;7.55;64.37;99706.28;5022762;28;20255;-88
2023/12/19 18:48:27;;;;;;;;;;;;;;;;;;;;;
2023/12/19 18:51:39;;;;;;;;;;;;;;;;;;;;;
2023/12/19 19:01:09;;;;;;;7.83;4.57;;;;;;;7.43;65.78;99696.25;5033161;28;20624;-88
2023/12/19 19:04:04;;;;;;;9.73;3.60;;;;;;;7.47;65.00;99690.03;5024826;28;20237;-88
2023/12/19 19:07:05;;;;;;;7.60;3.97;;;;;;;7.44;65.33;99690.16;5020994;28;20187;-88
2023/12/19 19:09:57;;;;;;;14.97;5.57;;;;;;;7.42;65.26;99689.31;5020993;28;20190;-88
2023/12/19 19:12:36;;;;;;;17.37;6.90;;;;;;;7.27;66.10;99679.38;5002324;28;20194;-88
2023/12/19 19:15:54;;;;;;;15.43;6.50;;;;;;;7.07;66.90;99681.72;5025838;28;20176;-88
2023/12/19 19:18:57;;;;;;;14.07;5.10;;;;;;;7.16;66.23;99686.66;5018623;28;20285;-88
2023/12/19 19:25:16;;;;;;;;;;;;;;;;;;;;;
2023/12/19 19:31:55;;;;;;;9.87;3.20;;;;;;;7.18;66.41;99675.28;5032900;28;20531;-88
2023/12/19 19:34:59;;;;;;;7.03;3.33;;;;;;;7.34;66.38;99676.50;5032803;28;20182;-88
2023/12/19 19:38:24;;;;;;;;;;;;;;;;;;;;;
2023/12/19 19:41:04;;;;;;;18.20;5.07;;;;;;;7.59;64.61;99684.44;5032175;28;20543;-88
2023/12/19 19:44:30;;;;;;;;;;;;;;;;;;;;;
2023/12/19 19:47:37;;;;;;;;;;;;;;;;;;;;;
2023/12/19 19:50:33;;;;;;;9.53;3.93;;;;;;;7.43;64.64;99676.25;5033070;28;20502;-88
2023/12/19 19:53:52;;;;;;;6.67;3.53;;;;;;;7.36;65.08;99677.31;5014156;28;20178;-88
2023/12/19 19:57:09;;;;;;;;;;;;;;;;;;;;;
2023/12/19 20:04:21;;;;;;;10.03;4.97;;;;;;;7.27;65.29;99672.41;4972590;28;20197;-87
2023/12/19 20:07:47;;;;;;;;;;;;;;;;;;;;;
2023/12/19 20:21:14;;;;;;;22.30;14.00;;;;;;;7.27;64.08;99648.94;4975127;28;20223;-88
2023/12/19 20:23:52;;;;;;;26.93;11.90;;;;;;;7.14;64.69;99638.94;4967572;28;20188;-88
2023/12/19 20:26:28;;;;;;;36.67;15.60;;;;;;;6.93;64.91;99650.00;4974769;28;20184;-88
2023/12/19 20:29:22;;;;;;;28.63;14.20;;;;;;;6.84;65.43;99639.88;4975217;28;20223;-88
2023/12/19 20:32:39;;;;;;;31.77;15.10;;;;;;;7.00;65.16;99641.94;4975233;28;20678;-88
2023/12/19 20:35:14;;;;;;;29.33;13.63;;;;;;;7.02;65.28;99634.97;4951721;29;20196;-88
2023/12/19 20:37:40;;;;;;;33.60;16.23;;;;;;;7.04;64.69;99638.38;4955868;29;20220;-88
2023/12/19 20:40:09;;;;;;;31.70;15.03;;;;;;;7.00;64.56;99633.28;5003605;28;20190;-88
2023/12/19 20:42:37;;;;;;;34.97;17.27;;;;;;;6.98;64.44;99624.66;5035597;28;20175;-88
2023/12/19 20:45:04;;;;;;;28.60;13.10;;;;;;;6.98;64.62;99630.72;5035387;28;20182;-88
2023/12/19 20:47:31;;;;;;;23.87;14.77;;;;;;;6.89;64.31;99630.16;5035354;28;20186;-88
2023/12/19 20:49:58;;;;;;;26.53;15.37;;;;;;;6.84;64.26;99626.84;5023926;28;20190;-88
2023/12/19 20:52:24;;;;;;;26.13;13.10;;;;;;;6.78;64.22;99631.34;5022572;28;20178;-88
2023/12/19 20:54:51;;;;;;;27.00;15.00;;;;;;;6.66;63.91;99626.47;5034804;28;20174;-87
2023/12/19 20:57:18;;;;;;;30.00;14.30;;;;;;;6.52;64.34;99628.63;5017533;28;20213;-88
2023/12/19 20:59:43;;;;;;;34.70;16.57;;;;;;;6.46;64.63;99622.72;5034382;28;20190;-88
2023/12/19 21:02:09;;;;;;;55.83;26.07;;;;;;;6.48;64.56;99619.19;5035047;28;20179;-88
2023/12/19 21:04:35;;;;;;;49.17;24.83;;;;;;;6.45;63.91;99615.78;5035034;28;20178;-88
2023/12/19 21:07:00;;;;;;;57.77;27.27;;;;;;;6.47;64.13;99608.81;5035339;28;20597;-88
2023/12/19 21:09:25;;;;;;;54.13;25.37;;;;;;;6.47;64.15;99612.25;5035103;28;20178;-88
2023/12/19 21:11:51;;;;;;;57.37;25.77;;;;;;;6.42;64.12;99602.88;5017646;28;20202;-88
2023/12/19 21:14:17;;;;;;;46.40;22.40;;;;;;;6.39;64.06;99598.63;5035108;28;20671;-88
2023/12/19 21:16:43;;;;;;;46.93;19.17;;;;;;;6.49;63.48;99594.00;5017352;28;20653;-88
2023/12/19 21:19:09;;;;;;;42.10;19.03;;;;;;;6.55;63.52;99599.88;5035149;28;20261;-88
2023/12/19 21:21:35;;;;;;;43.43;17.83;;;;;;;6.61;63.40;99602.31;5017378;28;20178;-88
2023/12/19 21:24:02;;;;;;;42.27;17.20;;;;;;;6.67;62.95;99593.47;5034482;28;20590;-88
2023/12/19 21:26:27;;;;;;;26.40;12.33;;;;;;;6.56;63.25;99595.50;5034961;28;20189;-88
2023/12/19 21:28:53;;;;;;;25.00;9.70;;;;;;;6.42;63.82;99592.47;5017103;28;20544;-88
2023/12/19 21:31:19;;;;;;;27.20;12.07;;;;;;;6.32;64.36;99593.59;5017174;28;20194;-88
2023/12/19 21:33:46;;;;;;;16.67;8.80;;;;;;;6.22;64.90;99605.16;5035004;28;20189;-88
2023/12/19 21:36:13;;;;;;;15.33;6.27;;;;;;;6.28;64.77;99595.47;5035105;28;20181;-88
2023/12/19 21:38:39;;;;;;;16.13;7.13;;;;;;;6.24;65.79;99585.19;5017039;28;20306;-88
2023/12/19 21:41:12;;;;;;;17.73;7.00;;;;;;;6.27;65.75;99578.13;5034461;28;20179;-88
2023/12/19 21:43:39;;;;;;;16.00;6.43;;;;;;;6.26;66.25;99580.78;5034078;28;20167;-88
2023/12/19 21:46:05;;;;;;;12.03;5.23;;;;;;;6.31;65.73;99577.16;5034358;28;20713;-88
2023/12/19 21:48:32;;;;;;;12.87;5.87;;;;;;;6.31;66.31;99579.75;5034429;28;20261;-88
2023/12/19 21:51:04;;;;;;;16.90;7.03;;;;;;;6.31;66.58;99574.56;5016865;28;20182;-88
2023/12/19 21:53:32;;;;;;;14.83;5.90;;;;;;;6.24;66.30;99573.00;5016830;28;20192;-88
2023/12/19 21:55:59;;;;;;;12.57;6.20;;;;;;;6.32;66.11;99565.81;5016422;28;20182;-88
2023/12/19 21:58:26;;;;;;;16.03;6.90;;;;;;;6.24;66.17;99554.78;5017449;28;20232;-88
2023/12/19 22:00:53;;;;;;;15.43;6.40;;;;;;;6.16;65.96;99554.13;5034137;28;20174;-88
2023/12/19 22:03:20;;;;;;;12.40;6.13;;;;;;;6.17;65.81;99553.25;5017328;28;20679;-88
2023/12/19 22:05:47;;;;;;;22.63;8.73;;;;;;;6.12;65.56;99545.59;5033651;28;20177;-88
2023/12/19 22:08:13;;;;;;;18.50;8.13;;;;;;;6.00;65.93;99543.31;5034155;28;20278;-88
2023/12/19 22:10:40;;;;;;;20.27;8.37;;;;;;;6.06;65.93;99537.94;5034160;28;20202;-88
2023/12/19 22:13:06;;;;;;;16.33;7.30;;;;;;;6.12;65.68;99532.56;5016222;28;20230;-88
2023/12/19 22:15:33;;;;;;;13.03;7.27;;;;;;;6.12;65.03;99526.50;5033372;28;20187;-88
2023/12/19 22:17:59;;;;;;;12.93;6.00;;;;;;;6.10;65.24;99523.09;5033607;28;20210;-88
2023/12/19 22:20:26;;;;;;;14.63;6.93;;;;;;;6.06;65.66;99517.13;5016211;28;20190;-88
2023/12/19 22:22:52;;;;;;;17.37;6.63;;;;;;;6.05;65.27;99514.56;5033921;28;20239;-88
2023/12/19 22:25:19;;;;;;;13.63;6.47;;;;;;;6.08;65.33;99507.50;5033369;28;20174;-88
2023/12/19 22:27:46;;;;;;;14.57;6.50;;;;;;;6.08;64.92;99510.13;5033836;28;20249;-88
2023/12/19 22:30:13;;;;;;;11.13;5.30;;;;;;;6.04;64.50;99505.06;5033399;28;20174;-87
2023/12/19 22:32:40;;;;;;;20.50;7.93;;;;;;;6.00;64.49;99500.84;5033780;28;20190;-88
2023/12/19 22:35:07;;;;;;;18.23;8.37;;;;;;;5.98;64.24;99500.00;5033137;28;20181;-88
2023/12/19 22:37:34;;;;;;;18.03;9.93;;;;;;;5.93;64.47;99494.09;5032665;28;20277;-88
2023/12/19 22:40:00;;;;;;;27.20;12.27;;;;;;;5.84;64.48;99503.00;5033646;28;20261;-87
2023/12/19 22:42:27;;;;;;;22.53;10.23;;;;;;;5.82;64.70;99509.09;5033330;28;20182;-87
2023/12/19 22:44:53;;;;;;;27.83;13.90;;;;;;;5.72;64.24;99505.06;5033330;28;20185;-87
2023/12/19 22:47:20;;;;;;;33.17;15.73;;;;;;;5.64;64.23;99507.84;5015933;28;20178;-87
2023/12/19 22:49:47;;;;;;;29.57;14.57;;;;;;;5.67;63.69;99506.94;5015152;28;20190;-87
2023/12/19 22:52:13;;;;;;;34.17;14.43;;;;;;;5.70;64.10;99502.50;5033524;28;20174;-87
2023/12/19 22:54:40;;;;;;;28.90;14.47;;;;;;;5.76;63.93;99493.69;5015249;28;20189;-87
2023/12/19 22:57:07;;;;;;;38.07;15.30;;;;;;;5.86;63.46;99489.97;5033097;28;20614;-87
2023/12/19 22:59:34;;;;;;;30.37;14.47;;;;;;;5.85;63.13;99483.03;5033686;28;20209;-87
2023/12/19 23:02:01;;;;;;;27.83;12.83;;;;;;;5.89;63.26;99482.06;5033411;28;20185;-87
2023/12/19 23:04:28;;;;;;;19.93;11.03;;;;;;;5.91;62.51;99475.94;5033109;28;20185;-87
2023/12/19 23:06:55;;;;;;;13.57;6.70;;;;;;;5.85;62.65;99472.63;5033365;28;20243;-88
2023/12/19 23:09:21;;;;;;;14.20;6.20;;;;;;;5.78;62.76;99465.88;5033358;28;20167;-87
2023/12/19 23:11:47;;;;;;;15.03;6.67;;;;;;;5.78;63.00;99468.47;5015465;28;20230;-87
2023/12/19 23:14:14;;;;;;;11.93;5.93;;;;;;;5.54;63.92;99467.41;5033289;28;20644;-88
2023/12/19 23:16:40;;;;;;;10.87;5.23;;;;;;;5.44;64.77;99468.56;5032982;28;20178;-87
2023/12/19 23:19:08;;;;;;;10.63;5.43;;;;;;;5.38;64.64;99466.97;5032857;28;20212;-88
2023/12/19 23:21:35;;;;;;;10.73;5.10;;;;;;;5.40;64.77;99459.97;5033018;28;20178;-88
2023/12/19 23:24:01;;;;;;;17.23;7.80;;;;;;;5.41;65.02;99463.44;5015111;28;20573;-88
2023/12/19 23:26:28;;;;;;;30.10;12.30;;;;;;;5.44;65.14;99471.16;5015508;28;20224;-87
2023/12/19 23:28:55;;;;;;;12.07;5.13;;;;;;;5.46;64.80;99471.94;5032873;28;20213;-88
2023/12/19 23:31:22;;;;;;;11.17;5.07;;;;;;;5.47;65.08;99468.47;5032249;28;20197;-88
2023/12/19 23:33:49;;;;;;;8.43;4.00;;;;;;;5.49;65.17;99458.88;5033116;28;20624;-87
2023/12/19 23:36:19;;;;;;;16.20;5.93;;;;;;;5.55;65.24;99462.16;5033314;28;20254;-87
2023/12/19 23:38:45;;;;;;;11.90;4.50;;;;;;;5.46;65.17;99457.22;5036656;28;20205;-88
2023/12/19 23:41:16;;;;;;;9.93;5.03;;;;;;;5.50;65.07;99451.03;5036649;28;20184;-88
2023/12/19 23:43:44;;;;;;;8.10;3.73;;;;;;;5.42;64.68;99445.19;5019218;28;20232;-88
2023/12/19 23:46:21;;;;;;;9.80;5.17;;;;;;;5.38;65.14;99448.78;5018397;28;20184;-88
2023/12/19 23:48:48;;;;;;;9.17;4.87;;;;;;;5.29;65.26;99449.00;5019143;28;20193;-88
2023/12/19 23:51:16;;;;;;;11.43;4.47;;;;;;;5.31;65.38;99441.19;5036468;28;20263;-87
2023/12/19 23:53:46;;;;;;;9.20;4.63;;;;;;;5.20;65.63;99441.47;5036042;28;20182;-87
2023/12/19 23:56:13;;;;;;;8.90;4.97;;;;;;;5.23;65.75;99438.78;5018985;28;20222;-87
2023/12/19 23:58:40;;;;;;;9.83;4.27;;;;;;;5.25;65.46;99437.00;5018681;28;20217;-88
